sensor_id;sensor_type;location;lat;lon;timestamp;P1;durP1;ratioP1;P2;durP2;ratioP2
80539;SDS011;69869;48.036;15.780;2023-07-31T00:02:03;5.35;;;2.45;;
80539;SDS011;69869;48.036;15.780;2023-07-31T00:04:29;5.20;;;2.80;;
80539;SDS011;69869;48.036;15.780;2023-07-31T00:06:54;5.07;;;2.55;;
80539;SDS011;69869;48.036;15.780;2023-07-31T00:09:20;4.13;;;2.33;;
80539;SDS011;69869;48.036;15.780;2023-07-31T00:11:46;5.53;;;2.50;;
80539;SDS011;69869;48.036;15.780;2023-07-31T00:14:11;6.40;;;2.63;;
80539;SDS011;69869;48.036;15.780;2023-07-31T00:21:48;5.07;;;2.30;;
80539;SDS011;69869;48.036;15.780;2023-07-31T00:24:14;5.15;;;2.58;;
80539;SDS011;69869;48.036;15.780;2023-07-31T00:26:39;3.70;;;2.13;;
80539;SDS011;69869;48.036;15.780;2023-07-31T00:36:51;3.67;;;2.33;;
80539;SDS011;69869;48.036;15.780;2023-07-31T00:39:19;4.47;;;2.20;;
80539;SDS011;69869;48.036;15.780;2023-07-31T00:41:45;2.83;;;2.22;;
80539;SDS011;69869;48.036;15.780;2023-07-31T00:44:10;4.05;;;2.25;;
80539;SDS011;69869;48.036;15.780;2023-07-31T00:46:36;3.17;;;2.25;;
80539;SDS011;69869;48.036;15.780;2023-07-31T00:49:02;3.58;;;2.08;;
80539;SDS011;69869;48.036;15.780;2023-07-31T00:51:29;4.35;;;2.47;;
80539;SDS011;69869;48.036;15.780;2023-07-31T00:53:54;3.35;;;2.15;;
80539;SDS011;69869;48.036;15.780;2023-07-31T00:56:21;3.47;;;1.90;;
80539;SDS011;69869;48.036;15.780;2023-07-31T01:03:59;3.75;;;2.10;;
80539;SDS011;69869;48.036;15.780;2023-07-31T01:09:02;3.33;;;1.90;;
80539;SDS011;69869;48.036;15.780;2023-07-31T01:11:33;3.30;;;1.80;;
80539;SDS011;69869;48.036;15.780;2023-07-31T01:14:03;2.88;;;1.80;;
80539;SDS011;69869;48.036;15.780;2023-07-31T01:16:29;3.53;;;2.08;;
80539;SDS011;69869;48.036;15.780;2023-07-31T01:18:55;2.97;;;1.88;;
80539;SDS011;69869;48.036;15.780;2023-07-31T01:21:39;3.28;;;1.98;;
80539;SDS011;69869;48.036;15.780;2023-07-31T01:26:57;3.78;;;2.20;;
80539;SDS011;69869;48.036;15.780;2023-07-31T01:29:34;3.00;;;1.85;;
80539;SDS011;69869;48.036;15.780;2023-07-31T01:32:06;4.07;;;2.05;;
80539;SDS011;69869;48.036;15.780;2023-07-31T01:34:34;3.00;;;1.90;;
80539;SDS011;69869;48.036;15.780;2023-07-31T01:37:00;3.35;;;2.00;;
80539;SDS011;69869;48.036;15.780;2023-07-31T01:39:26;2.47;;;1.92;;
80539;SDS011;69869;48.036;15.780;2023-07-31T01:41:51;2.85;;;1.92;;
80539;SDS011;69869;48.036;15.780;2023-07-31T01:44:17;3.30;;;2.03;;
80539;SDS011;69869;48.036;15.780;2023-07-31T01:46:43;3.00;;;1.95;;
80539;SDS011;69869;48.036;15.780;2023-07-31T01:49:08;4.43;;;1.70;;
80539;SDS011;69869;48.036;15.780;2023-07-31T01:51:34;2.67;;;1.60;;
80539;SDS011;69869;48.036;15.780;2023-07-31T01:54:00;1.90;;;1.70;;
80539;SDS011;69869;48.036;15.780;2023-07-31T01:56:26;3.92;;;1.75;;
80539;SDS011;69869;48.036;15.780;2023-07-31T01:58:54;2.90;;;1.80;;
80539;SDS011;69869;48.036;15.780;2023-07-31T02:01:20;1.60;;;1.50;;
80539;SDS011;69869;48.036;15.780;2023-07-31T02:03:45;3.63;;;1.90;;
80539;SDS011;69869;48.036;15.780;2023-07-31T02:06:11;2.72;;;1.70;;
80539;SDS011;69869;48.036;15.780;2023-07-31T02:08:37;2.75;;;1.90;;
80539;SDS011;69869;48.036;15.780;2023-07-31T02:11:03;2.85;;;1.80;;
80539;SDS011;69869;48.036;15.780;2023-07-31T02:13:28;1.95;;;1.70;;
80539;SDS011;69869;48.036;15.780;2023-07-31T02:15:54;2.70;;;1.70;;
80539;SDS011;69869;48.036;15.780;2023-07-31T02:18:20;2.72;;;1.70;;
80539;SDS011;69869;48.036;15.780;2023-07-31T02:20:51;3.10;;;1.90;;
80539;SDS011;69869;48.036;15.780;2023-07-31T02:23:17;1.58;;;1.48;;
80539;SDS011;69869;48.036;15.780;2023-07-31T02:25:44;2.72;;;1.38;;
80539;SDS011;69869;48.036;15.780;2023-07-31T02:28:10;2.30;;;1.65;;
80539;SDS011;69869;48.036;15.780;2023-07-31T02:30:36;2.15;;;1.70;;
80539;SDS011;69869;48.036;15.780;2023-07-31T02:33:02;1.70;;;1.45;;
80539;SDS011;69869;48.036;15.780;2023-07-31T02:35:28;1.70;;;1.60;;
80539;SDS011;69869;48.036;15.780;2023-07-31T02:37:53;2.17;;;1.80;;
80539;SDS011;69869;48.036;15.780;2023-07-31T02:40:19;1.63;;;1.40;;
80539;SDS011;69869;48.036;15.780;2023-07-31T02:42:44;1.73;;;1.40;;
80539;SDS011;69869;48.036;15.780;2023-07-31T02:45:10;1.73;;;1.58;;
80539;SDS011;69869;48.036;15.780;2023-07-31T02:47:36;1.75;;;1.30;;
80539;SDS011;69869;48.036;15.780;2023-07-31T02:50:02;1.73;;;1.50;;
80539;SDS011;69869;48.036;15.780;2023-07-31T02:52:28;4.13;;;1.70;;
80539;SDS011;69869;48.036;15.780;2023-07-31T02:54:54;1.73;;;1.45;;
80539;SDS011;69869;48.036;15.780;2023-07-31T02:57:20;2.30;;;1.65;;
80539;SDS011;69869;48.036;15.780;2023-07-31T02:59:45;1.67;;;1.42;;
80539;SDS011;69869;48.036;15.780;2023-07-31T03:02:11;1.80;;;1.40;;
80539;SDS011;69869;48.036;15.780;2023-07-31T03:04:38;2.20;;;1.52;;
80539;SDS011;69869;48.036;15.780;2023-07-31T03:07:03;1.42;;;1.33;;
80539;SDS011;69869;48.036;15.780;2023-07-31T03:09:29;1.60;;;1.40;;
80539;SDS011;69869;48.036;15.780;2023-07-31T03:11:55;1.75;;;1.55;;
80539;SDS011;69869;48.036;15.780;2023-07-31T03:14:21;2.20;;;1.63;;
80539;SDS011;69869;48.036;15.780;2023-07-31T03:16:46;1.63;;;1.52;;
80539;SDS011;69869;48.036;15.780;2023-07-31T03:19:12;1.90;;;1.70;;
80539;SDS011;69869;48.036;15.780;2023-07-31T03:21:38;2.42;;;1.45;;
80539;SDS011;69869;48.036;15.780;2023-07-31T03:24:04;1.50;;;1.40;;
80539;SDS011;69869;48.036;15.780;2023-07-31T03:26:31;1.48;;;1.38;;
80539;SDS011;69869;48.036;15.780;2023-07-31T03:28:57;1.98;;;1.52;;
80539;SDS011;69869;48.036;15.780;2023-07-31T03:31:23;1.65;;;1.33;;
80539;SDS011;69869;48.036;15.780;2023-07-31T03:33:48;1.67;;;1.50;;
80539;SDS011;69869;48.036;15.780;2023-07-31T03:36:14;1.63;;;1.40;;
80539;SDS011;69869;48.036;15.780;2023-07-31T03:38:39;1.52;;;1.42;;
80539;SDS011;69869;48.036;15.780;2023-07-31T03:41:05;2.50;;;1.35;;
80539;SDS011;69869;48.036;15.780;2023-07-31T03:43:31;1.40;;;1.30;;
80539;SDS011;69869;48.036;15.780;2023-07-31T03:45:59;2.30;;;1.42;;
80539;SDS011;69869;48.036;15.780;2023-07-31T03:48:25;1.58;;;1.27;;
80539;SDS011;69869;48.036;15.780;2023-07-31T03:50:51;1.60;;;1.50;;
80539;SDS011;69869;48.036;15.780;2023-07-31T03:53:17;1.40;;;1.30;;
80539;SDS011;69869;48.036;15.780;2023-07-31T03:55:42;1.40;;;1.30;;
80539;SDS011;69869;48.036;15.780;2023-07-31T03:58:08;1.50;;;1.40;;
80539;SDS011;69869;48.036;15.780;2023-07-31T04:00:34;1.60;;;1.50;;
80539;SDS011;69869;48.036;15.780;2023-07-31T04:02:59;1.42;;;1.33;;
80539;SDS011;69869;48.036;15.780;2023-07-31T04:05:25;1.50;;;1.40;;
80539;SDS011;69869;48.036;15.780;2023-07-31T04:07:51;1.40;;;1.30;;
80539;SDS011;69869;48.036;15.780;2023-07-31T04:10:16;2.05;;;1.63;;
80539;SDS011;69869;48.036;15.780;2023-07-31T04:12:42;1.58;;;1.40;;
80539;SDS011;69869;48.036;15.780;2023-07-31T04:15:08;1.40;;;1.30;;
80539;SDS011;69869;48.036;15.780;2023-07-31T04:17:33;1.98;;;1.40;;
80539;SDS011;69869;48.036;15.780;2023-07-31T04:19:59;1.50;;;1.40;;
80539;SDS011;69869;48.036;15.780;2023-07-31T04:22:25;1.30;;;1.20;;
80539;SDS011;69869;48.036;15.780;2023-07-31T04:24:50;1.55;;;1.45;;
80539;SDS011;69869;48.036;15.780;2023-07-31T04:27:16;1.65;;;1.48;;
80539;SDS011;69869;48.036;15.780;2023-07-31T04:29:42;1.40;;;1.30;;
80539;SDS011;69869;48.036;15.780;2023-07-31T04:32:09;1.52;;;1.40;;
80539;SDS011;69869;48.036;15.780;2023-07-31T04:34:35;1.30;;;1.20;;
80539;SDS011;69869;48.036;15.780;2023-07-31T04:37:00;1.60;;;1.50;;
80539;SDS011;69869;48.036;15.780;2023-07-31T04:39:26;1.52;;;1.40;;
80539;SDS011;69869;48.036;15.780;2023-07-31T04:41:51;1.88;;;1.30;;
80539;SDS011;69869;48.036;15.780;2023-07-31T04:44:17;1.75;;;1.30;;
80539;SDS011;69869;48.036;15.780;2023-07-31T04:46:43;1.45;;;1.35;;
80539;SDS011;69869;48.036;15.780;2023-07-31T04:49:08;1.75;;;1.40;;
80539;SDS011;69869;48.036;15.780;2023-07-31T04:51:34;1.38;;;1.27;;
80539;SDS011;69869;48.036;15.780;2023-07-31T04:53:59;1.50;;;1.40;;
80539;SDS011;69869;48.036;15.780;2023-07-31T04:56:25;1.38;;;1.30;;
80539;SDS011;69869;48.036;15.780;2023-07-31T04:58:51;1.50;;;1.40;;
80539;SDS011;69869;48.036;15.780;2023-07-31T05:01:16;1.25;;;1.15;;
80539;SDS011;69869;48.036;15.780;2023-07-31T05:03:42;1.52;;;1.40;;
80539;SDS011;69869;48.036;15.780;2023-07-31T05:06:07;1.30;;;1.20;;
80539;SDS011;69869;48.036;15.780;2023-07-31T05:08:33;1.77;;;1.30;;
80539;SDS011;69869;48.036;15.780;2023-07-31T05:10:59;1.50;;;1.40;;
80539;SDS011;69869;48.036;15.780;2023-07-31T05:13:24;1.90;;;1.23;;
80539;SDS011;69869;48.036;15.780;2023-07-31T05:15:50;1.30;;;1.20;;
80539;SDS011;69869;48.036;15.780;2023-07-31T05:18:16;1.30;;;1.20;;
80539;SDS011;69869;48.036;15.780;2023-07-31T05:20:41;1.60;;;1.50;;
80539;SDS011;69869;48.036;15.780;2023-07-31T05:23:07;1.23;;;1.20;;
80539;SDS011;69869;48.036;15.780;2023-07-31T05:25:32;1.30;;;1.20;;
80539;SDS011;69869;48.036;15.780;2023-07-31T05:27:58;1.40;;;1.30;;
80539;SDS011;69869;48.036;15.780;2023-07-31T05:30:24;1.33;;;1.23;;
80539;SDS011;69869;48.036;15.780;2023-07-31T05:32:49;1.45;;;1.35;;
80539;SDS011;69869;48.036;15.780;2023-07-31T05:35:15;1.38;;;1.27;;
80539;SDS011;69869;48.036;15.780;2023-07-31T05:37:40;1.90;;;1.55;;
80539;SDS011;69869;48.036;15.780;2023-07-31T05:40:06;1.50;;;1.40;;
80539;SDS011;69869;48.036;15.780;2023-07-31T05:42:32;1.40;;;1.30;;
80539;SDS011;69869;48.036;15.780;2023-07-31T05:44:58;1.13;;;1.13;;
80539;SDS011;69869;48.036;15.780;2023-07-31T05:47:23;1.25;;;1.17;;
80539;SDS011;69869;48.036;15.780;2023-07-31T05:49:49;1.58;;;1.42;;
80539;SDS011;69869;48.036;15.780;2023-07-31T05:52:17;1.92;;;1.25;;
80539;SDS011;69869;48.036;15.780;2023-07-31T05:54:43;1.20;;;1.20;;
80539;SDS011;69869;48.036;15.780;2023-07-31T05:57:10;1.92;;;1.20;;
80539;SDS011;69869;48.036;15.780;2023-07-31T05:59:36;1.30;;;1.20;;
80539;SDS011;69869;48.036;15.780;2023-07-31T06:02:02;1.30;;;1.20;;
80539;SDS011;69869;48.036;15.780;2023-07-31T06:04:27;1.42;;;1.33;;
80539;SDS011;69869;48.036;15.780;2023-07-31T06:06:53;1.23;;;1.20;;
80539;SDS011;69869;48.036;15.780;2023-07-31T06:09:19;2.10;;;1.20;;
80539;SDS011;69869;48.036;15.780;2023-07-31T06:11:45;1.50;;;1.30;;
80539;SDS011;69869;48.036;15.780;2023-07-31T06:14:11;1.20;;;1.10;;
80539;SDS011;69869;48.036;15.780;2023-07-31T06:16:37;1.40;;;1.30;;
80539;SDS011;69869;48.036;15.780;2023-07-31T06:19:02;1.17;;;1.08;;
80539;SDS011;69869;48.036;15.780;2023-07-31T06:21:28;1.40;;;1.30;;
80539;SDS011;69869;48.036;15.780;2023-07-31T06:23:54;1.83;;;1.20;;
80539;SDS011;69869;48.036;15.780;2023-07-31T06:26:20;1.08;;;1.08;;
80539;SDS011;69869;48.036;15.780;2023-07-31T06:28:46;1.38;;;1.30;;
80539;SDS011;69869;48.036;15.780;2023-07-31T06:31:11;2.42;;;1.30;;
80539;SDS011;69869;48.036;15.780;2023-07-31T06:33:37;1.50;;;1.40;;
80539;SDS011;69869;48.036;15.780;2023-07-31T06:36:03;1.50;;;1.40;;
80539;SDS011;69869;48.036;15.780;2023-07-31T06:38:28;1.75;;;1.25;;
80539;SDS011;69869;48.036;15.780;2023-07-31T06:40:54;1.27;;;1.17;;
80539;SDS011;69869;48.036;15.780;2023-07-31T06:43:20;1.40;;;1.30;;
80539;SDS011;69869;48.036;15.780;2023-07-31T06:45:46;1.30;;;1.20;;
80539;SDS011;69869;48.036;15.780;2023-07-31T06:48:15;1.20;;;1.15;;
80539;SDS011;69869;48.036;15.780;2023-07-31T06:50:40;1.35;;;1.25;;
80539;SDS011;69869;48.036;15.780;2023-07-31T06:53:06;1.25;;;1.15;;
80539;SDS011;69869;48.036;15.780;2023-07-31T06:55:31;1.65;;;1.30;;
80539;SDS011;69869;48.036;15.780;2023-07-31T06:57:57;1.23;;;1.13;;
80539;SDS011;69869;48.036;15.780;2023-07-31T07:00:23;1.30;;;1.20;;
80539;SDS011;69869;48.036;15.780;2023-07-31T07:02:49;1.10;;;1.10;;
80539;SDS011;69869;48.036;15.780;2023-07-31T07:05:15;1.10;;;1.00;;
80539;SDS011;69869;48.036;15.780;2023-07-31T07:07:42;1.40;;;1.30;;
80539;SDS011;69869;48.036;15.780;2023-07-31T07:10:08;1.27;;;1.17;;
80539;SDS011;69869;48.036;15.780;2023-07-31T07:12:34;1.80;;;1.30;;
80539;SDS011;69869;48.036;15.780;2023-07-31T07:15:00;1.30;;;1.20;;
80539;SDS011;69869;48.036;15.780;2023-07-31T07:17:27;0.98;;;0.90;;
80539;SDS011;69869;48.036;15.780;2023-07-31T07:19:57;1.75;;;1.40;;
80539;SDS011;69869;48.036;15.780;2023-07-31T07:22:23;2.08;;;1.67;;
80539;SDS011;69869;48.036;15.780;2023-07-31T07:24:49;1.98;;;1.77;;
80539;SDS011;69869;48.036;15.780;2023-07-31T07:27:15;1.60;;;1.50;;
80539;SDS011;69869;48.036;15.780;2023-07-31T07:29:40;2.40;;;1.40;;
80539;SDS011;69869;48.036;15.780;2023-07-31T07:32:06;1.90;;;1.63;;
80539;SDS011;69869;48.036;15.780;2023-07-31T07:34:36;2.13;;;1.80;;
80539;SDS011;69869;48.036;15.780;2023-07-31T07:37:02;2.85;;;1.50;;
80539;SDS011;69869;48.036;15.780;2023-07-31T07:39:28;3.67;;;1.58;;
80539;SDS011;69869;48.036;15.780;2023-07-31T07:41:54;2.25;;;1.58;;
80539;SDS011;69869;48.036;15.780;2023-07-31T07:44:19;2.00;;;1.70;;
80539;SDS011;69869;48.036;15.780;2023-07-31T07:46:45;1.95;;;1.60;;
80539;SDS011;69869;48.036;15.780;2023-07-31T07:49:10;2.33;;;1.63;;
80539;SDS011;69869;48.036;15.780;2023-07-31T07:51:36;1.98;;;1.63;;
80539;SDS011;69869;48.036;15.780;2023-07-31T07:54:02;2.25;;;1.58;;
80539;SDS011;69869;48.036;15.780;2023-07-31T07:56:27;1.92;;;1.50;;
80539;SDS011;69869;48.036;15.780;2023-07-31T07:58:53;1.48;;;1.38;;
80539;SDS011;69869;48.036;15.780;2023-07-31T08:01:19;2.13;;;1.33;;
80539;SDS011;69869;48.036;15.780;2023-07-31T08:03:45;1.73;;;1.48;;
80539;SDS011;69869;48.036;15.780;2023-07-31T08:06:12;1.60;;;1.50;;
80539;SDS011;69869;48.036;15.780;2023-07-31T08:08:38;1.85;;;1.40;;
80539;SDS011;69869;48.036;15.780;2023-07-31T08:11:03;1.35;;;1.20;;
80539;SDS011;69869;48.036;15.780;2023-07-31T08:13:29;1.42;;;1.33;;
80539;SDS011;69869;48.036;15.780;2023-07-31T08:15:55;1.27;;;1.15;;
80539;SDS011;69869;48.036;15.780;2023-07-31T08:18:21;1.33;;;1.20;;
80539;SDS011;69869;48.036;15.780;2023-07-31T08:20:47;1.58;;;1.48;;
80539;SDS011;69869;48.036;15.780;2023-07-31T08:23:12;1.40;;;1.30;;
80539;SDS011;69869;48.036;15.780;2023-07-31T08:25:38;1.70;;;1.45;;
80539;SDS011;69869;48.036;15.780;2023-07-31T08:28:05;1.67;;;1.42;;
80539;SDS011;69869;48.036;15.780;2023-07-31T08:30:31;1.90;;;1.30;;
80539;SDS011;69869;48.036;15.780;2023-07-31T08:32:58;2.30;;;1.50;;
80539;SDS011;69869;48.036;15.780;2023-07-31T08:35:25;1.75;;;1.33;;
80539;SDS011;69869;48.036;15.780;2023-07-31T08:37:53;2.85;;;1.30;;
80539;SDS011;69869;48.036;15.780;2023-07-31T08:40:18;1.30;;;1.20;;
80539;SDS011;69869;48.036;15.780;2023-07-31T08:42:45;1.73;;;1.27;;
80539;SDS011;69869;48.036;15.780;2023-07-31T08:45:15;1.60;;;1.30;;
80539;SDS011;69869;48.036;15.780;2023-07-31T08:47:47;1.30;;;1.20;;
80539;SDS011;69869;48.036;15.780;2023-07-31T08:50:14;1.83;;;1.30;;
80539;SDS011;69869;48.036;15.780;2023-07-31T08:52:42;1.65;;;1.50;;
80539;SDS011;69869;48.036;15.780;2023-07-31T08:55:08;1.58;;;1.20;;
80539;SDS011;69869;48.036;15.780;2023-07-31T08:57:34;1.23;;;1.10;;
80539;SDS011;69869;48.036;15.780;2023-07-31T09:00:02;1.92;;;1.40;;
80539;SDS011;69869;48.036;15.780;2023-07-31T09:02:31;1.58;;;1.20;;
80539;SDS011;69869;48.036;15.780;2023-07-31T09:05:03;1.10;;;1.10;;
80539;SDS011;69869;48.036;15.780;2023-07-31T09:07:33;1.45;;;1.30;;
80539;SDS011;69869;48.036;15.780;2023-07-31T09:10:00;1.48;;;1.13;;
80539;SDS011;69869;48.036;15.780;2023-07-31T09:12:25;1.63;;;1.33;;
80539;SDS011;69869;48.036;15.780;2023-07-31T09:14:51;1.73;;;1.27;;
80539;SDS011;69869;48.036;15.780;2023-07-31T09:17:28;1.60;;;1.40;;
80539;SDS011;69869;48.036;15.780;2023-07-31T09:19:57;1.30;;;1.20;;
80539;SDS011;69869;48.036;15.780;2023-07-31T09:22:32;1.30;;;1.20;;
80539;SDS011;69869;48.036;15.780;2023-07-31T09:27:51;1.25;;;1.15;;
80539;SDS011;69869;48.036;15.780;2023-07-31T09:30:20;1.25;;;1.20;;
80539;SDS011;69869;48.036;15.780;2023-07-31T09:32:47;1.65;;;1.20;;
80539;SDS011;69869;48.036;15.780;2023-07-31T09:35:18;1.27;;;1.17;;
80539;SDS011;69869;48.036;15.780;2023-07-31T09:37:47;1.25;;;1.15;;
80539;SDS011;69869;48.036;15.780;2023-07-31T09:40:24;1.07;;;1.00;;
80539;SDS011;69869;48.036;15.780;2023-07-31T09:42:55;1.30;;;1.20;;
80539;SDS011;69869;48.036;15.780;2023-07-31T09:45:25;1.20;;;1.10;;
80539;SDS011;69869;48.036;15.780;2023-07-31T09:47:51;1.55;;;1.20;;
80539;SDS011;69869;48.036;15.780;2023-07-31T09:50:17;1.02;;;0.95;;
80539;SDS011;69869;48.036;15.780;2023-07-31T09:52:44;2.03;;;1.48;;
80539;SDS011;69869;48.036;15.780;2023-07-31T09:55:10;1.30;;;1.20;;
80539;SDS011;69869;48.036;15.780;2023-07-31T09:57:41;1.30;;;1.20;;
80539;SDS011;69869;48.036;15.780;2023-07-31T10:00:11;1.65;;;1.10;;
80539;SDS011;69869;48.036;15.780;2023-07-31T10:02:38;2.50;;;1.20;;
80539;SDS011;69869;48.036;15.780;2023-07-31T10:05:05;2.10;;;1.30;;
80539;SDS011;69869;48.036;15.780;2023-07-31T10:07:33;1.20;;;1.10;;
80539;SDS011;69869;48.036;15.780;2023-07-31T10:10:07;1.38;;;1.13;;
80539;SDS011;69869;48.036;15.780;2023-07-31T10:12:36;1.40;;;1.30;;
80539;SDS011;69869;48.036;15.780;2023-07-31T10:15:03;1.25;;;1.15;;
80539;SDS011;69869;48.036;15.780;2023-07-31T10:17:29;1.23;;;1.08;;
80539;SDS011;69869;48.036;15.780;2023-07-31T10:19:58;1.15;;;1.00;;
80539;SDS011;69869;48.036;15.780;2023-07-31T10:22:26;1.38;;;1.10;;
80539;SDS011;69869;48.036;15.780;2023-07-31T10:24:53;1.92;;;1.35;;
80539;SDS011;69869;48.036;15.780;2023-07-31T10:27:20;1.63;;;1.27;;
80539;SDS011;69869;48.036;15.780;2023-07-31T10:29:45;1.38;;;1.20;;
80539;SDS011;69869;48.036;15.780;2023-07-31T10:32:13;1.30;;;1.20;;
80539;SDS011;69869;48.036;15.780;2023-07-31T10:34:41;1.25;;;1.10;;
80539;SDS011;69869;48.036;15.780;2023-07-31T10:40:03;1.10;;;1.00;;
80539;SDS011;69869;48.036;15.780;2023-07-31T10:44:57;2.10;;;1.63;;
80539;SDS011;69869;48.036;15.780;2023-07-31T10:47:24;1.60;;;1.15;;
80539;SDS011;69869;48.036;15.780;2023-07-31T10:49:54;1.13;;;1.10;;
80539;SDS011;69869;48.036;15.780;2023-07-31T10:52:52;1.65;;;1.20;;
80539;SDS011;69869;48.036;15.780;2023-07-31T10:58:00;1.27;;;1.17;;
80539;SDS011;69869;48.036;15.780;2023-07-31T11:00:38;1.30;;;1.20;;
80539;SDS011;69869;48.036;15.780;2023-07-31T11:03:17;1.25;;;1.15;;
80539;SDS011;69869;48.036;15.780;2023-07-31T11:08:24;1.20;;;1.10;;
80539;SDS011;69869;48.036;15.780;2023-07-31T11:11:09;1.23;;;1.13;;
80539;SDS011;69869;48.036;15.780;2023-07-31T11:13:41;1.10;;;1.10;;
80539;SDS011;69869;48.036;15.780;2023-07-31T11:16:07;1.35;;;1.20;;
80539;SDS011;69869;48.036;15.780;2023-07-31T11:18:34;1.20;;;1.10;;
80539;SDS011;69869;48.036;15.780;2023-07-31T11:21:00;1.38;;;1.27;;
80539;SDS011;69869;48.036;15.780;2023-07-31T11:23:26;1.75;;;1.20;;
80539;SDS011;69869;48.036;15.780;2023-07-31T11:25:51;1.45;;;1.20;;
80539;SDS011;69869;48.036;15.780;2023-07-31T11:28:17;1.25;;;1.17;;
80539;SDS011;69869;48.036;15.780;2023-07-31T11:30:44;1.40;;;1.05;;
80539;SDS011;69869;48.036;15.780;2023-07-31T11:33:12;1.30;;;1.20;;
80539;SDS011;69869;48.036;15.780;2023-07-31T11:35:43;1.63;;;1.35;;
80539;SDS011;69869;48.036;15.780;2023-07-31T11:38:29;1.33;;;1.23;;
80539;SDS011;69869;48.036;15.780;2023-07-31T11:40:57;1.40;;;1.25;;
80539;SDS011;69869;48.036;15.780;2023-07-31T11:43:24;4.43;;;1.10;;
80539;SDS011;69869;48.036;15.780;2023-07-31T11:45:50;1.55;;;1.10;;
80539;SDS011;69869;48.036;15.780;2023-07-31T11:50:59;1.20;;;1.10;;
80539;SDS011;69869;48.036;15.780;2023-07-31T11:56:10;1.50;;;1.30;;
80539;SDS011;69869;48.036;15.780;2023-07-31T11:58:39;2.08;;;1.33;;
80539;SDS011;69869;48.036;15.780;2023-07-31T12:01:06;2.15;;;1.40;;
80539;SDS011;69869;48.036;15.780;2023-07-31T12:03:32;1.30;;;1.20;;
80539;SDS011;69869;48.036;15.780;2023-07-31T12:06:02;1.98;;;1.20;;
80539;SDS011;69869;48.036;15.780;2023-07-31T12:08:28;1.35;;;1.15;;
80539;SDS011;69869;48.036;15.780;2023-07-31T12:10:54;1.50;;;1.40;;
80539;SDS011;69869;48.036;15.780;2023-07-31T12:13:26;1.30;;;1.20;;
80539;SDS011;69869;48.036;15.780;2023-07-31T12:15:56;1.75;;;1.30;;
80539;SDS011;69869;48.036;15.780;2023-07-31T12:18:23;1.40;;;1.30;;
80539;SDS011;69869;48.036;15.780;2023-07-31T12:20:54;1.00;;;1.00;;
80539;SDS011;69869;48.036;15.780;2023-07-31T12:23:23;1.33;;;1.20;;
80539;SDS011;69869;48.036;15.780;2023-07-31T12:28:46;1.48;;;1.17;;
80539;SDS011;69869;48.036;15.780;2023-07-31T12:31:22;1.08;;;1.02;;
80539;SDS011;69869;48.036;15.780;2023-07-31T12:33:51;1.33;;;1.23;;
80539;SDS011;69869;48.036;15.780;2023-07-31T12:36:17;2.78;;;1.70;;
80539;SDS011;69869;48.036;15.780;2023-07-31T12:38:46;1.20;;;1.10;;
80539;SDS011;69869;48.036;15.780;2023-07-31T12:41:11;2.00;;;1.30;;
80539;SDS011;69869;48.036;15.780;2023-07-31T12:43:39;1.20;;;1.20;;
80539;SDS011;69869;48.036;15.780;2023-07-31T12:46:06;2.15;;;1.30;;
80539;SDS011;69869;48.036;15.780;2023-07-31T12:48:35;1.20;;;1.10;;
80539;SDS011;69869;48.036;15.780;2023-07-31T12:51:02;1.35;;;1.20;;
80539;SDS011;69869;48.036;15.780;2023-07-31T12:53:28;1.20;;;1.20;;
80539;SDS011;69869;48.036;15.780;2023-07-31T12:55:55;1.52;;;1.20;;
80539;SDS011;69869;48.036;15.780;2023-07-31T12:58:21;1.55;;;1.40;;
80539;SDS011;69869;48.036;15.780;2023-07-31T13:00:46;1.95;;;1.23;;
80539;SDS011;69869;48.036;15.780;2023-07-31T13:03:12;1.55;;;1.17;;
80539;SDS011;69869;48.036;15.780;2023-07-31T13:05:37;1.30;;;1.20;;
80539;SDS011;69869;48.036;15.780;2023-07-31T13:08:03;1.13;;;1.02;;
80539;SDS011;69869;48.036;15.780;2023-07-31T13:10:29;1.00;;;1.00;;
80539;SDS011;69869;48.036;15.780;2023-07-31T13:12:55;1.40;;;1.30;;
80539;SDS011;69869;48.036;15.780;2023-07-31T13:15:21;1.30;;;1.13;;
80539;SDS011;69869;48.036;15.780;2023-07-31T13:17:46;1.20;;;1.10;;
80539;SDS011;69869;48.036;15.780;2023-07-31T13:20:12;2.40;;;1.30;;
80539;SDS011;69869;48.036;15.780;2023-07-31T13:22:38;1.63;;;1.30;;
80539;SDS011;69869;48.036;15.780;2023-07-31T13:25:04;1.48;;;1.38;;
80539;SDS011;69869;48.036;15.780;2023-07-31T13:27:30;1.30;;;1.20;;
80539;SDS011;69869;48.036;15.780;2023-07-31T13:29:56;1.45;;;1.35;;
80539;SDS011;69869;48.036;15.780;2023-07-31T13:32:21;1.40;;;1.30;;
80539;SDS011;69869;48.036;15.780;2023-07-31T13:34:47;3.20;;;1.20;;
80539;SDS011;69869;48.036;15.780;2023-07-31T13:37:13;1.17;;;1.10;;
80539;SDS011;69869;48.036;15.780;2023-07-31T13:39:40;1.40;;;1.30;;
80539;SDS011;69869;48.036;15.780;2023-07-31T13:42:06;1.40;;;1.30;;
80539;SDS011;69869;48.036;15.780;2023-07-31T13:44:34;2.28;;;1.55;;
80539;SDS011;69869;48.036;15.780;2023-07-31T13:47:00;1.30;;;1.20;;
80539;SDS011;69869;48.036;15.780;2023-07-31T13:49:26;1.40;;;1.30;;
80539;SDS011;69869;48.036;15.780;2023-07-31T13:51:52;1.58;;;1.38;;
80539;SDS011;69869;48.036;15.780;2023-07-31T13:54:17;1.80;;;1.23;;
80539;SDS011;69869;48.036;15.780;2023-07-31T13:56:43;1.40;;;1.30;;
80539;SDS011;69869;48.036;15.780;2023-07-31T13:59:09;11.43;;;1.60;;
80539;SDS011;69869;48.036;15.780;2023-07-31T14:01:35;8.05;;;1.40;;
80539;SDS011;69869;48.036;15.780;2023-07-31T14:04:01;40.40;;;2.83;;
80539;SDS011;69869;48.036;15.780;2023-07-31T14:06:27;6.65;;;1.90;;
80539;SDS011;69869;48.036;15.780;2023-07-31T14:08:53;3.95;;;1.58;;
80539;SDS011;69869;48.036;15.780;2023-07-31T14:11:18;9.73;;;1.77;;
80539;SDS011;69869;48.036;15.780;2023-07-31T14:13:44;3.47;;;1.73;;
80539;SDS011;69869;48.036;15.780;2023-07-31T14:16:10;3.60;;;1.58;;
80539;SDS011;69869;48.036;15.780;2023-07-31T14:18:35;7.10;;;1.80;;
80539;SDS011;69869;48.036;15.780;2023-07-31T14:21:01;7.40;;;1.80;;
80539;SDS011;69869;48.036;15.780;2023-07-31T14:23:27;4.57;;;1.65;;
80539;SDS011;69869;48.036;15.780;2023-07-31T14:25:52;3.75;;;1.80;;
80539;SDS011;69869;48.036;15.780;2023-07-31T14:28:18;4.57;;;1.88;;
80539;SDS011;69869;48.036;15.780;2023-07-31T14:30:43;2.17;;;1.70;;
80539;SDS011;69869;48.036;15.780;2023-07-31T14:33:09;5.00;;;1.90;;
80539;SDS011;69869;48.036;15.780;2023-07-31T14:35:37;7.60;;;1.90;;
80539;SDS011;69869;48.036;15.780;2023-07-31T14:38:03;4.22;;;1.60;;
80539;SDS011;69869;48.036;15.780;2023-07-31T14:40:29;5.18;;;1.73;;
80539;SDS011;69869;48.036;15.780;2023-07-31T14:42:54;2.55;;;1.50;;
80539;SDS011;69869;48.036;15.780;2023-07-31T14:45:20;5.13;;;1.80;;
80539;SDS011;69869;48.036;15.780;2023-07-31T14:47:45;3.70;;;1.70;;
80539;SDS011;69869;48.036;15.780;2023-07-31T14:50:11;3.88;;;1.95;;
80539;SDS011;69869;48.036;15.780;2023-07-31T14:52:37;4.03;;;1.80;;
80539;SDS011;69869;48.036;15.780;2023-07-31T14:55:03;2.90;;;1.85;;
80539;SDS011;69869;48.036;15.780;2023-07-31T14:57:29;5.05;;;1.90;;
80539;SDS011;69869;48.036;15.780;2023-07-31T14:59:54;5.40;;;1.95;;
80539;SDS011;69869;48.036;15.780;2023-07-31T15:02:20;15.15;;;2.10;;
80539;SDS011;69869;48.036;15.780;2023-07-31T15:04:46;7.75;;;2.00;;
80539;SDS011;69869;48.036;15.780;2023-07-31T15:07:11;6.95;;;2.10;;
80539;SDS011;69869;48.036;15.780;2023-07-31T15:09:38;5.22;;;2.10;;
80539;SDS011;69869;48.036;15.780;2023-07-31T15:12:04;7.70;;;2.00;;
80539;SDS011;69869;48.036;15.780;2023-07-31T15:14:31;5.90;;;2.00;;
80539;SDS011;69869;48.036;15.780;2023-07-31T15:16:57;7.97;;;2.05;;